Johannesburg, South Africa
Current Conditions -  °F | °C
As of 5:30 PM on Friday 19 Dec 2014 (Local Time) from FAOR Reporting Station
Thunderstorm Thunderstorm  
Wind Chill: 66°   Ceiling: Unl
Heat Index: 66°   Visibility: 6mi
Dew Point: 61°   Wind: 7mph
Humidity: 83%   Direction: 130°SE
Pressure: 30.09"   Gusts: NA
Location:  26.19°S, 28.04°E
Report Text: FAOR 191530Z 13006KT 110V180 9999 -TSRA FEW007 SCT035 FEW040CB 19/16 Q1019 NOSIG
Loading
Personal Weather Stations






























Interactive Weather Map New forecast layout! Learn more

10-Day Weather Forecast

Advertisements
Track Severe Weather on mobile